Terminal Aerodrome Forecast
Issued by NWS

Home | Current Version | Previous Version | Text Only | Print | Product List | Glossary On
Versions: 1 2 3 4 5 6 7 8 9 10 11 12 13 14 15 16 17 18 19 20 21
475
FTUS43 KILX 281948 AAA
TAFDEC
TAF AMD
KDEC 281948Z 2820/2918 21007KT P6SM VCTS SCT020CB BKN050
      TEMPO 2820/2822 27015G25KT 2SM +TSRA BR BKN025CB
     FM282200 31004KT P6SM BKN045
     FM290600 30003KT 3SM BR SCT030 BKN250
     FM291400 29005KT P6SM SCT025 BKN250=

USA.gov is the U.S. government's official web portal to all federal, state and local government web resources and services.